sensor_id;sensor_type;location;lat;lon;timestamp;P1;durP1;ratioP1;P2;durP2;ratioP2
23288;SDS011;11813;50.834;4.280;2022-09-13T00:00:15;5.93;;;3.50;;
23288;SDS011;11813;50.834;4.280;2022-09-13T00:02:40;8.25;;;3.80;;
23288;SDS011;11813;50.834;4.280;2022-09-13T00:05:06;7.40;;;3.78;;
23288;SDS011;11813;50.834;4.280;2022-09-13T00:07:32;6.05;;;3.42;;
23288;SDS011;11813;50.834;4.280;2022-09-13T00:09:58;12.30;;;4.22;;
23288;SDS011;11813;50.834;4.280;2022-09-13T00:12:23;6.40;;;3.58;;
23288;SDS011;11813;50.834;4.280;2022-09-13T00:14:49;8.13;;;3.50;;
23288;SDS011;11813;50.834;4.280;2022-09-13T00:17:15;4.22;;;3.20;;
23288;SDS011;11813;50.834;4.280;2022-09-13T00:19:40;4.10;;;3.25;;
23288;SDS011;11813;50.834;4.280;2022-09-13T00:22:06;12.18;;;3.72;;
23288;SDS011;11813;50.834;4.280;2022-09-13T00:24:31;9.20;;;3.45;;
23288;SDS011;11813;50.834;4.280;2022-09-13T00:26:58;4.50;;;3.60;;
23288;SDS011;11813;50.834;4.280;2022-09-13T00:29:24;9.55;;;3.63;;
23288;SDS011;11813;50.834;4.280;2022-09-13T00:31:50;4.40;;;3.28;;
23288;SDS011;11813;50.834;4.280;2022-09-13T00:34:16;5.93;;;3.50;;
23288;SDS011;11813;50.834;4.280;2022-09-13T00:36:42;6.65;;;3.13;;
23288;SDS011;11813;50.834;4.280;2022-09-13T00:39:08;10.40;;;4.15;;
23288;SDS011;11813;50.834;4.280;2022-09-13T00:41:34;3.92;;;3.53;;
23288;SDS011;11813;50.834;4.280;2022-09-13T00:44:00;8.15;;;3.65;;
23288;SDS011;11813;50.834;4.280;2022-09-13T00:46:40;4.85;;;4.05;;
23288;SDS011;11813;50.834;4.280;2022-09-13T00:49:23;6.07;;;3.57;;
23288;SDS011;11813;50.834;4.280;2022-09-13T00:52:02;6.30;;;3.50;;
23288;SDS011;11813;50.834;4.280;2022-09-13T00:54:37;6.45;;;3.97;;
23288;SDS011;11813;50.834;4.280;2022-09-13T00:57:06;4.97;;;3.60;;
23288;SDS011;11813;50.834;4.280;2022-09-13T00:59:35;4.18;;;3.67;;
23288;SDS011;11813;50.834;4.280;2022-09-13T01:02:08;6.38;;;3.33;;
23288;SDS011;11813;50.834;4.280;2022-09-13T01:04:34;5.85;;;3.95;;
23288;SDS011;11813;50.834;4.280;2022-09-13T01:07:02;6.78;;;3.90;;
23288;SDS011;11813;50.834;4.280;2022-09-13T01:09:31;5.47;;;3.63;;
23288;SDS011;11813;50.834;4.280;2022-09-13T01:12:02;4.53;;;3.92;;
23288;SDS011;11813;50.834;4.280;2022-09-13T01:14:38;6.78;;;3.47;;
23288;SDS011;11813;50.834;4.280;2022-09-13T01:17:04;7.28;;;3.70;;
23288;SDS011;11813;50.834;4.280;2022-09-13T01:19:29;5.82;;;4.10;;
23288;SDS011;11813;50.834;4.280;2022-09-13T01:30:19;5.28;;;3.13;;
23288;SDS011;11813;50.834;4.280;2022-09-13T01:57:18;5.13;;;3.60;;
23288;SDS011;11813;50.834;4.280;2022-09-13T01:59:53;6.70;;;4.03;;
23288;SDS011;11813;50.834;4.280;2022-09-13T02:02:32;5.32;;;4.57;;
23288;SDS011;11813;50.834;4.280;2022-09-13T02:05:06;5.43;;;4.25;;
23288;SDS011;11813;50.834;4.280;2022-09-13T02:07:41;6.53;;;3.28;;
23288;SDS011;11813;50.834;4.280;2022-09-13T02:10:19;4.30;;;3.50;;
23288;SDS011;11813;50.834;4.280;2022-09-13T02:12:49;4.38;;;3.60;;
23288;SDS011;11813;50.834;4.280;2022-09-13T02:15:19;5.35;;;3.85;;
23288;SDS011;11813;50.834;4.280;2022-09-13T02:18:01;10.45;;;4.13;;
23288;SDS011;11813;50.834;4.280;2022-09-13T02:20:34;5.03;;;3.75;;
23288;SDS011;11813;50.834;4.280;2022-09-13T02:23:06;5.05;;;4.32;;
23288;SDS011;11813;50.834;4.280;2022-09-13T02:25:35;5.78;;;3.85;;
23288;SDS011;11813;50.834;4.280;2022-09-13T02:28:04;5.75;;;3.60;;
23288;SDS011;11813;50.834;4.280;2022-09-13T02:30:33;6.40;;;3.55;;
23288;SDS011;11813;50.834;4.280;2022-09-13T02:33:06;3.88;;;3.30;;
23288;SDS011;11813;50.834;4.280;2022-09-13T02:38:19;4.53;;;3.55;;
23288;SDS011;11813;50.834;4.280;2022-09-13T02:40:55;5.30;;;3.20;;
23288;SDS011;11813;50.834;4.280;2022-09-13T02:43:30;4.95;;;3.53;;
23288;SDS011;11813;50.834;4.280;2022-09-13T02:46:18;5.43;;;3.45;;
23288;SDS011;11813;50.834;4.280;2022-09-13T02:56:53;4.68;;;3.53;;
23288;SDS011;11813;50.834;4.280;2022-09-13T02:59:29;5.53;;;4.00;;
23288;SDS011;11813;50.834;4.280;2022-09-13T03:04:31;4.78;;;3.38;;
23288;SDS011;11813;50.834;4.280;2022-09-13T03:06:58;5.25;;;3.70;;
23288;SDS011;11813;50.834;4.280;2022-09-13T03:09:24;6.90;;;3.88;;
23288;SDS011;11813;50.834;4.280;2022-09-13T03:14:55;5.97;;;3.38;;
23288;SDS011;11813;50.834;4.280;2022-09-13T03:17:29;5.10;;;3.78;;
23288;SDS011;11813;50.834;4.280;2022-09-13T03:20:09;5.50;;;3.72;;
23288;SDS011;11813;50.834;4.280;2022-09-13T03:22:49;10.15;;;4.20;;
23288;SDS011;11813;50.834;4.280;2022-09-13T03:31:06;5.30;;;3.05;;
23288;SDS011;11813;50.834;4.280;2022-09-13T03:36:18;4.03;;;3.60;;
23288;SDS011;11813;50.834;4.280;2022-09-13T03:38:54;3.90;;;3.50;;
23288;SDS011;11813;50.834;4.280;2022-09-13T03:41:26;9.40;;;4.13;;
23288;SDS011;11813;50.834;4.280;2022-09-13T03:43:59;5.95;;;3.65;;
23288;SDS011;11813;50.834;4.280;2022-09-13T03:46:41;4.30;;;3.17;;
23288;SDS011;11813;50.834;4.280;2022-09-13T03:49:11;4.63;;;3.40;;
23288;SDS011;11813;50.834;4.280;2022-09-13T03:51:42;5.00;;;3.15;;
23288;SDS011;11813;50.834;4.280;2022-09-13T03:54:11;5.05;;;3.47;;
23288;SDS011;11813;50.834;4.280;2022-09-13T03:56:42;5.25;;;3.47;;
23288;SDS011;11813;50.834;4.280;2022-09-13T03:59:08;6.22;;;3.20;;
23288;SDS011;11813;50.834;4.280;2022-09-13T04:01:33;6.22;;;3.25;;
23288;SDS011;11813;50.834;4.280;2022-09-13T04:03:59;5.85;;;3.35;;
23288;SDS011;11813;50.834;4.280;2022-09-13T04:06:24;4.43;;;3.60;;
23288;SDS011;11813;50.834;4.280;2022-09-13T04:08:50;5.55;;;3.42;;
23288;SDS011;11813;50.834;4.280;2022-09-13T04:11:16;7.53;;;4.38;;
23288;SDS011;11813;50.834;4.280;2022-09-13T04:13:41;5.80;;;3.97;;
23288;SDS011;11813;50.834;4.280;2022-09-13T04:16:07;4.07;;;3.67;;
23288;SDS011;11813;50.834;4.280;2022-09-13T04:18:33;5.93;;;4.13;;
23288;SDS011;11813;50.834;4.280;2022-09-13T04:20:59;4.97;;;3.70;;
23288;SDS011;11813;50.834;4.280;2022-09-13T04:23:27;6.72;;;3.85;;
23288;SDS011;11813;50.834;4.280;2022-09-13T04:25:54;5.22;;;3.92;;
23288;SDS011;11813;50.834;4.280;2022-09-13T04:28:20;6.32;;;3.92;;
23288;SDS011;11813;50.834;4.280;2022-09-13T04:30:46;7.45;;;4.13;;
23288;SDS011;11813;50.834;4.280;2022-09-13T04:33:13;5.93;;;3.72;;
23288;SDS011;11813;50.834;4.280;2022-09-13T04:35:40;6.55;;;3.92;;
23288;SDS011;11813;50.834;4.280;2022-09-13T04:38:05;8.27;;;3.90;;
23288;SDS011;11813;50.834;4.280;2022-09-13T04:40:32;4.95;;;4.05;;
23288;SDS011;11813;50.834;4.280;2022-09-13T04:42:59;4.68;;;3.50;;
23288;SDS011;11813;50.834;4.280;2022-09-13T04:45:25;6.75;;;4.13;;
23288;SDS011;11813;50.834;4.280;2022-09-13T04:47:54;4.97;;;4.20;;
23288;SDS011;11813;50.834;4.280;2022-09-13T04:50:20;9.65;;;4.60;;
23288;SDS011;11813;50.834;4.280;2022-09-13T04:52:47;4.78;;;4.00;;
23288;SDS011;11813;50.834;4.280;2022-09-13T04:55:12;9.48;;;4.18;;
23288;SDS011;11813;50.834;4.280;2022-09-13T04:57:38;6.43;;;4.18;;
23288;SDS011;11813;50.834;4.280;2022-09-13T05:00:05;5.05;;;4.13;;
23288;SDS011;11813;50.834;4.280;2022-09-13T05:02:31;10.07;;;4.43;;
23288;SDS011;11813;50.834;4.280;2022-09-13T05:04:57;8.75;;;4.65;;
23288;SDS011;11813;50.834;4.280;2022-09-13T05:07:22;7.50;;;4.75;;
23288;SDS011;11813;50.834;4.280;2022-09-13T05:09:48;8.32;;;4.38;;
23288;SDS011;11813;50.834;4.280;2022-09-13T05:12:13;6.35;;;4.57;;
23288;SDS011;11813;50.834;4.280;2022-09-13T05:14:39;7.43;;;4.35;;
23288;SDS011;11813;50.834;4.280;2022-09-13T05:17:04;6.18;;;4.68;;
23288;SDS011;11813;50.834;4.280;2022-09-13T05:19:30;6.35;;;4.57;;
23288;SDS011;11813;50.834;4.280;2022-09-13T05:21:56;5.97;;;4.38;;
23288;SDS011;11813;50.834;4.280;2022-09-13T05:24:21;10.02;;;4.60;;
23288;SDS011;11813;50.834;4.280;2022-09-13T05:26:47;6.03;;;4.65;;
23288;SDS011;11813;50.834;4.280;2022-09-13T05:29:12;7.15;;;4.28;;
23288;SDS011;11813;50.834;4.280;2022-09-13T05:31:39;6.05;;;4.82;;
23288;SDS011;11813;50.834;4.280;2022-09-13T05:34:07;5.93;;;4.53;;
23288;SDS011;11813;50.834;4.280;2022-09-13T05:36:35;7.57;;;4.60;;
23288;SDS011;11813;50.834;4.280;2022-09-13T05:39:01;9.57;;;4.93;;
23288;SDS011;11813;50.834;4.280;2022-09-13T05:41:27;9.63;;;5.40;;
23288;SDS011;11813;50.834;4.280;2022-09-13T05:43:53;7.18;;;5.13;;
23288;SDS011;11813;50.834;4.280;2022-09-13T05:46:18;7.28;;;4.38;;
23288;SDS011;11813;50.834;4.280;2022-09-13T05:48:45;5.90;;;4.10;;
23288;SDS011;11813;50.834;4.280;2022-09-13T05:51:16;6.30;;;4.30;;
23288;SDS011;11813;50.834;4.280;2022-09-13T05:53:44;7.78;;;4.60;;
23288;SDS011;11813;50.834;4.280;2022-09-13T05:56:12;7.22;;;4.35;;
23288;SDS011;11813;50.834;4.280;2022-09-13T05:58:43;6.82;;;5.03;;
23288;SDS011;11813;50.834;4.280;2022-09-13T06:01:10;9.00;;;5.20;;
23288;SDS011;11813;50.834;4.280;2022-09-13T06:03:37;6.55;;;5.00;;
23288;SDS011;11813;50.834;4.280;2022-09-13T06:06:03;6.40;;;5.03;;
23288;SDS011;11813;50.834;4.280;2022-09-13T06:08:30;6.47;;;5.15;;
23288;SDS011;11813;50.834;4.280;2022-09-13T06:11:01;12.48;;;4.78;;
23288;SDS011;11813;50.834;4.280;2022-09-13T06:13:30;6.32;;;4.93;;
23288;SDS011;11813;50.834;4.280;2022-09-13T06:15:56;5.40;;;4.30;;
23288;SDS011;11813;50.834;4.280;2022-09-13T06:18:23;7.80;;;4.70;;
23288;SDS011;11813;50.834;4.280;2022-09-13T06:20:50;5.38;;;4.43;;
23288;SDS011;11813;50.834;4.280;2022-09-13T06:23:16;6.75;;;4.63;;
23288;SDS011;11813;50.834;4.280;2022-09-13T06:25:42;9.23;;;4.55;;
23288;SDS011;11813;50.834;4.280;2022-09-13T06:28:08;6.95;;;4.43;;
23288;SDS011;11813;50.834;4.280;2022-09-13T06:30:34;8.13;;;4.80;;
23288;SDS011;11813;50.834;4.280;2022-09-13T06:33:00;7.40;;;4.97;;
23288;SDS011;11813;50.834;4.280;2022-09-13T06:35:26;8.63;;;4.70;;
23288;SDS011;11813;50.834;4.280;2022-09-13T06:37:55;5.55;;;4.63;;
23288;SDS011;11813;50.834;4.280;2022-09-13T06:40:24;7.55;;;4.60;;
23288;SDS011;11813;50.834;4.280;2022-09-13T06:42:50;6.57;;;4.70;;
23288;SDS011;11813;50.834;4.280;2022-09-13T06:45:16;6.47;;;4.75;;
23288;SDS011;11813;50.834;4.280;2022-09-13T06:47:42;6.35;;;4.28;;
23288;SDS011;11813;50.834;4.280;2022-09-13T06:50:08;6.30;;;4.22;;
23288;SDS011;11813;50.834;4.280;2022-09-13T06:52:34;6.97;;;4.32;;
23288;SDS011;11813;50.834;4.280;2022-09-13T06:54:59;9.63;;;5.82;;
23288;SDS011;11813;50.834;4.280;2022-09-13T06:57:25;6.30;;;4.88;;
23288;SDS011;11813;50.834;4.280;2022-09-13T06:59:53;7.72;;;4.57;;
23288;SDS011;11813;50.834;4.280;2022-09-13T07:02:19;7.32;;;3.90;;
23288;SDS011;11813;50.834;4.280;2022-09-13T07:04:44;10.75;;;4.97;;
23288;SDS011;11813;50.834;4.280;2022-09-13T07:07:10;6.25;;;4.35;;
23288;SDS011;11813;50.834;4.280;2022-09-13T07:09:36;15.25;;;5.03;;
23288;SDS011;11813;50.834;4.280;2022-09-13T07:12:01;8.55;;;5.30;;
23288;SDS011;11813;50.834;4.280;2022-09-13T07:14:29;6.15;;;4.85;;
23288;SDS011;11813;50.834;4.280;2022-09-13T07:16:55;5.57;;;4.80;;
23288;SDS011;11813;50.834;4.280;2022-09-13T07:19:22;8.25;;;5.15;;
23288;SDS011;11813;50.834;4.280;2022-09-13T07:21:52;9.10;;;5.25;;
23288;SDS011;11813;50.834;4.280;2022-09-13T07:24:19;8.25;;;4.72;;
23288;SDS011;11813;50.834;4.280;2022-09-13T07:26:46;10.13;;;5.22;;
23288;SDS011;11813;50.834;4.280;2022-09-13T07:29:16;9.38;;;4.78;;
23288;SDS011;11813;50.834;4.280;2022-09-13T07:31:46;9.20;;;5.35;;
23288;SDS011;11813;50.834;4.280;2022-09-13T07:34:14;9.88;;;5.40;;
23288;SDS011;11813;50.834;4.280;2022-09-13T07:36:42;14.15;;;6.05;;
23288;SDS011;11813;50.834;4.280;2022-09-13T07:39:08;11.77;;;5.97;;
23288;SDS011;11813;50.834;4.280;2022-09-13T07:41:34;9.85;;;5.57;;
23288;SDS011;11813;50.834;4.280;2022-09-13T07:44:01;11.60;;;5.40;;
23288;SDS011;11813;50.834;4.280;2022-09-13T07:46:28;10.32;;;5.70;;
23288;SDS011;11813;50.834;4.280;2022-09-13T07:49:00;12.48;;;4.78;;
23288;SDS011;11813;50.834;4.280;2022-09-13T07:51:30;11.95;;;5.93;;
23288;SDS011;11813;50.834;4.280;2022-09-13T07:53:58;8.07;;;4.97;;
23288;SDS011;11813;50.834;4.280;2022-09-13T07:56:29;12.95;;;6.10;;
23288;SDS011;11813;50.834;4.280;2022-09-13T07:58:57;8.82;;;4.95;;
23288;SDS011;11813;50.834;4.280;2022-09-13T08:01:25;12.10;;;5.65;;
23288;SDS011;11813;50.834;4.280;2022-09-13T08:03:59;11.52;;;6.07;;
23288;SDS011;11813;50.834;4.280;2022-09-13T08:06:27;10.60;;;5.28;;
23288;SDS011;11813;50.834;4.280;2022-09-13T08:08:54;11.35;;;5.50;;
23288;SDS011;11813;50.834;4.280;2022-09-13T08:11:22;17.20;;;5.10;;
23288;SDS011;11813;50.834;4.280;2022-09-13T08:13:55;11.10;;;5.07;;
23288;SDS011;11813;50.834;4.280;2022-09-13T08:16:22;14.63;;;6.00;;
23288;SDS011;11813;50.834;4.280;2022-09-13T08:18:51;11.55;;;5.65;;
23288;SDS011;11813;50.834;4.280;2022-09-13T08:21:18;10.65;;;5.10;;
23288;SDS011;11813;50.834;4.280;2022-09-13T08:23:44;8.60;;;4.97;;
23288;SDS011;11813;50.834;4.280;2022-09-13T08:26:11;14.23;;;5.45;;
23288;SDS011;11813;50.834;4.280;2022-09-13T08:28:37;14.30;;;5.82;;
23288;SDS011;11813;50.834;4.280;2022-09-13T08:31:05;12.82;;;5.30;;
23288;SDS011;11813;50.834;4.280;2022-09-13T08:33:35;9.60;;;4.68;;
23288;SDS011;11813;50.834;4.280;2022-09-13T08:36:02;11.93;;;5.05;;
23288;SDS011;11813;50.834;4.280;2022-09-13T08:38:28;13.85;;;4.88;;
23288;SDS011;11813;50.834;4.280;2022-09-13T08:41:02;6.82;;;4.75;;
23288;SDS011;11813;50.834;4.280;2022-09-13T08:46:28;8.48;;;4.85;;
23288;SDS011;11813;50.834;4.280;2022-09-13T08:49:05;9.15;;;5.07;;
23288;SDS011;11813;50.834;4.280;2022-09-13T08:51:39;9.02;;;4.65;;
23288;SDS011;11813;50.834;4.280;2022-09-13T08:54:12;9.07;;;4.63;;
23288;SDS011;11813;50.834;4.280;2022-09-13T09:05:27;8.85;;;4.72;;
23288;SDS011;11813;50.834;4.280;2022-09-13T09:08:57;10.48;;;4.60;;
23288;SDS011;11813;50.834;4.280;2022-09-13T09:10:59;9.15;;;4.63;;
23288;SDS011;11813;50.834;4.280;2022-09-13T09:19:06;7.70;;;4.97;;
23288;SDS011;11813;50.834;4.280;2022-09-13T09:21:40;10.93;;;5.40;;
23288;SDS011;11813;50.834;4.280;2022-09-13T09:24:09;10.32;;;5.85;;
23288;SDS011;11813;50.834;4.280;2022-09-13T09:26:40;13.02;;;5.90;;
23288;SDS011;11813;50.834;4.280;2022-09-13T09:37:29;6.25;;;4.65;;
23288;SDS011;11813;50.834;4.280;2022-09-13T09:39:59;9.07;;;5.47;;
23288;SDS011;11813;50.834;4.280;2022-09-13T09:42:29;8.48;;;5.22;;
23288;SDS011;11813;50.834;4.280;2022-09-13T09:45:03;12.75;;;5.93;;
23288;SDS011;11813;50.834;4.280;2022-09-13T09:47:43;12.93;;;6.72;;
23288;SDS011;11813;50.834;4.280;2022-09-13T09:50:16;11.05;;;5.20;;
23288;SDS011;11813;50.834;4.280;2022-09-13T09:52:58;11.23;;;5.18;;
23288;SDS011;11813;50.834;4.280;2022-09-13T09:55:27;14.82;;;6.15;;
23288;SDS011;11813;50.834;4.280;2022-09-13T09:58:00;13.02;;;5.75;;
23288;SDS011;11813;50.834;4.280;2022-09-13T10:00:31;11.05;;;6.32;;
23288;SDS011;11813;50.834;4.280;2022-09-13T10:03:00;22.13;;;5.97;;
23288;SDS011;11813;50.834;4.280;2022-09-13T10:05:30;10.20;;;6.53;;
23288;SDS011;11813;50.834;4.280;2022-09-13T10:08:06;16.63;;;5.65;;
23288;SDS011;11813;50.834;4.280;2022-09-13T10:10:51;13.60;;;6.78;;
23288;SDS011;11813;50.834;4.280;2022-09-13T10:13:19;16.70;;;5.40;;
23288;SDS011;11813;50.834;4.280;2022-09-13T10:18:28;13.45;;;6.35;;
23288;SDS011;11813;50.834;4.280;2022-09-13T10:21:01;14.50;;;6.30;;
23288;SDS011;11813;50.834;4.280;2022-09-13T10:23:26;12.00;;;6.32;;
23288;SDS011;11813;50.834;4.280;2022-09-13T10:26:13;16.02;;;6.07;;
23288;SDS011;11813;50.834;4.280;2022-09-13T10:28:53;11.73;;;5.20;;
23288;SDS011;11813;50.834;4.280;2022-09-13T10:31:30;16.65;;;5.72;;
23288;SDS011;11813;50.834;4.280;2022-09-13T10:34:01;11.13;;;5.78;;
23288;SDS011;11813;50.834;4.280;2022-09-13T10:36:40;10.40;;;5.30;;
23288;SDS011;11813;50.834;4.280;2022-09-13T10:39:14;11.30;;;5.80;;
23288;SDS011;11813;50.834;4.280;2022-09-13T10:41:46;13.68;;;5.60;;
23288;SDS011;11813;50.834;4.280;2022-09-13T10:47:03;12.95;;;5.88;;
23288;SDS011;11813;50.834;4.280;2022-09-13T10:49:35;10.43;;;5.00;;
23288;SDS011;11813;50.834;4.280;2022-09-13T10:57:43;15.07;;;6.47;;
23288;SDS011;11813;50.834;4.280;2022-09-13T11:00:17;17.75;;;5.35;;
23288;SDS011;11813;50.834;4.280;2022-09-13T11:03:11;13.85;;;5.60;;
23288;SDS011;11813;50.834;4.280;2022-09-13T11:14:12;11.00;;;5.85;;
23288;SDS011;11813;50.834;4.280;2022-09-13T11:19:39;16.63;;;4.88;;
23288;SDS011;11813;50.834;4.280;2022-09-13T11:24:42;9.93;;;5.38;;
23288;SDS011;11813;50.834;4.280;2022-09-13T11:27:31;11.80;;;5.18;;
23288;SDS011;11813;50.834;4.280;2022-09-13T11:30:19;11.98;;;4.28;;
23288;SDS011;11813;50.834;4.280;2022-09-13T11:51:36;9.80;;;4.85;;
23288;SDS011;11813;50.834;4.280;2022-09-13T11:56:40;13.00;;;5.47;;
23288;SDS011;11813;50.834;4.280;2022-09-13T12:02:04;12.02;;;5.15;;
23288;SDS011;11813;50.834;4.280;2022-09-13T12:04:46;19.88;;;5.53;;
23288;SDS011;11813;50.834;4.280;2022-09-13T12:07:23;12.90;;;5.50;;
23288;SDS011;11813;50.834;4.280;2022-09-13T12:09:58;10.05;;;4.43;;
23288;SDS011;11813;50.834;4.280;2022-09-13T12:12:29;7.97;;;4.45;;
23288;SDS011;11813;50.834;4.280;2022-09-13T12:15:05;12.90;;;5.32;;
23288;SDS011;11813;50.834;4.280;2022-09-13T12:17:39;8.73;;;4.88;;
23288;SDS011;11813;50.834;4.280;2022-09-13T12:20:14;12.38;;;5.18;;
23288;SDS011;11813;50.834;4.280;2022-09-13T12:23:02;17.45;;;5.20;;
23288;SDS011;11813;50.834;4.280;2022-09-13T12:25:38;8.25;;;4.38;;
23288;SDS011;11813;50.834;4.280;2022-09-13T12:28:12;14.02;;;5.13;;
23288;SDS011;11813;50.834;4.280;2022-09-13T12:31:32;8.60;;;4.70;;
23288;SDS011;11813;50.834;4.280;2022-09-13T12:33:40;8.27;;;4.72;;
23288;SDS011;11813;50.834;4.280;2022-09-13T12:41:35;12.88;;;4.50;;
23288;SDS011;11813;50.834;4.280;2022-09-13T12:53:23;4.18;;;3.40;;
23288;SDS011;11813;50.834;4.280;2022-09-13T12:59:27;4.97;;;3.75;;
23288;SDS011;11813;50.834;4.280;2022-09-13T13:02:25;4.35;;;3.33;;
23288;SDS011;11813;50.834;4.280;2022-09-13T13:04:53;5.82;;;3.47;;
23288;SDS011;11813;50.834;4.280;2022-09-13T13:07:24;5.03;;;3.03;;
23288;SDS011;11813;50.834;4.280;2022-09-13T13:09:51;12.25;;;4.85;;
23288;SDS011;11813;50.834;4.280;2022-09-13T13:15:02;9.68;;;4.80;;
23288;SDS011;11813;50.834;4.280;2022-09-13T13:17:48;13.35;;;4.97;;
23288;SDS011;11813;50.834;4.280;2022-09-13T13:34:00;9.35;;;4.60;;
23288;SDS011;11813;50.834;4.280;2022-09-13T13:39:04;5.15;;;4.03;;
23288;SDS011;11813;50.834;4.280;2022-09-13T13:41:38;9.30;;;4.30;;
23288;SDS011;11813;50.834;4.280;2022-09-13T13:46:39;5.68;;;4.20;;
23288;SDS011;11813;50.834;4.280;2022-09-13T14:10:47;8.32;;;4.65;;
23288;SDS011;11813;50.834;4.280;2022-09-13T14:21:20;9.30;;;5.00;;
23288;SDS011;11813;50.834;4.280;2022-09-13T14:23:49;9.23;;;4.70;;
23288;SDS011;11813;50.834;4.280;2022-09-13T14:26:15;8.35;;;4.57;;
23288;SDS011;11813;50.834;4.280;2022-09-13T14:28:41;15.88;;;5.32;;
23288;SDS011;11813;50.834;4.280;2022-09-13T14:31:06;15.13;;;4.40;;
23288;SDS011;11813;50.834;4.280;2022-09-13T14:33:39;13.68;;;5.35;;
23288;SDS011;11813;50.834;4.280;2022-09-13T14:36:26;13.05;;;6.13;;
23288;SDS011;11813;50.834;4.280;2022-09-13T14:38:53;10.93;;;4.97;;
23288;SDS011;11813;50.834;4.280;2022-09-13T14:41:28;13.95;;;5.65;;
23288;SDS011;11813;50.834;4.280;2022-09-13T14:44:15;11.52;;;5.70;;
23288;SDS011;11813;50.834;4.280;2022-09-13T14:46:51;12.45;;;5.85;;
23288;SDS011;11813;50.834;4.280;2022-09-13T14:49:41;10.02;;;5.90;;
23288;SDS011;11813;50.834;4.280;2022-09-13T14:52:15;10.35;;;5.68;;
23288;SDS011;11813;50.834;4.280;2022-09-13T14:54:51;11.00;;;6.10;;
23288;SDS011;11813;50.834;4.280;2022-09-13T14:57:41;14.40;;;5.63;;
23288;SDS011;11813;50.834;4.280;2022-09-13T15:02:43;7.35;;;6.03;;
23288;SDS011;11813;50.834;4.280;2022-09-13T15:05:23;13.93;;;6.10;;
23288;SDS011;11813;50.834;4.280;2022-09-13T15:07:51;12.27;;;5.72;;
23288;SDS011;11813;50.834;4.280;2022-09-13T15:12:55;7.82;;;4.97;;
23288;SDS011;11813;50.834;4.280;2022-09-13T15:15:39;10.15;;;5.70;;
23288;SDS011;11813;50.834;4.280;2022-09-13T15:21:05;10.80;;;6.32;;
23288;SDS011;11813;50.834;4.280;2022-09-13T15:23:40;10.93;;;5.57;;
23288;SDS011;11813;50.834;4.280;2022-09-13T15:26:11;10.07;;;5.70;;
23288;SDS011;11813;50.834;4.280;2022-09-13T15:31:08;12.07;;;6.80;;
23288;SDS011;11813;50.834;4.280;2022-09-13T15:33:35;13.55;;;6.55;;
23288;SDS011;11813;50.834;4.280;2022-09-13T15:38:55;10.45;;;7.30;;
23288;SDS011;11813;50.834;4.280;2022-09-13T15:41:49;22.95;;;7.07;;
23288;SDS011;11813;50.834;4.280;2022-09-13T15:44:25;11.60;;;6.82;;
23288;SDS011;11813;50.834;4.280;2022-09-13T15:46:54;12.45;;;5.38;;
23288;SDS011;11813;50.834;4.280;2022-09-13T15:49:24;10.73;;;6.85;;
23288;SDS011;11813;50.834;4.280;2022-09-13T15:51:52;11.23;;;6.80;;
23288;SDS011;11813;50.834;4.280;2022-09-13T15:54:19;13.20;;;7.30;;
23288;SDS011;11813;50.834;4.280;2022-09-13T15:56:47;10.93;;;7.70;;
23288;SDS011;11813;50.834;4.280;2022-09-13T15:59:15;11.98;;;7.40;;
23288;SDS011;11813;50.834;4.280;2022-09-13T16:01:43;12.50;;;7.88;;
23288;SDS011;11813;50.834;4.280;2022-09-13T16:04:11;20.38;;;8.23;;
23288;SDS011;11813;50.834;4.280;2022-09-13T16:06:37;12.13;;;8.93;;
23288;SDS011;11813;50.834;4.280;2022-09-13T16:09:16;15.90;;;9.77;;
23288;SDS011;11813;50.834;4.280;2022-09-13T16:11:46;12.73;;;9.10;;
23288;SDS011;11813;50.834;4.280;2022-09-13T16:14:13;19.92;;;8.88;;
23288;SDS011;11813;50.834;4.280;2022-09-13T16:16:39;12.73;;;9.55;;
23288;SDS011;11813;50.834;4.280;2022-09-13T16:19:05;20.52;;;9.50;;
23288;SDS011;11813;50.834;4.280;2022-09-13T16:21:37;14.82;;;10.07;;
23288;SDS011;11813;50.834;4.280;2022-09-13T16:24:02;15.23;;;10.15;;
23288;SDS011;11813;50.834;4.280;2022-09-13T16:26:28;16.90;;;9.55;;
23288;SDS011;11813;50.834;4.280;2022-09-13T16:28:56;15.20;;;9.30;;
23288;SDS011;11813;50.834;4.280;2022-09-13T16:31:21;15.55;;;8.77;;
23288;SDS011;11813;50.834;4.280;2022-09-13T16:33:47;13.85;;;9.52;;
23288;SDS011;11813;50.834;4.280;2022-09-13T16:36:13;13.57;;;9.40;;
23288;SDS011;11813;50.834;4.280;2022-09-13T16:38:38;16.70;;;7.95;;
23288;SDS011;11813;50.834;4.280;2022-09-13T16:41:04;18.08;;;8.80;;
23288;SDS011;11813;50.834;4.280;2022-09-13T16:43:30;13.40;;;7.45;;
23288;SDS011;11813;50.834;4.280;2022-09-13T16:45:57;12.02;;;6.78;;
23288;SDS011;11813;50.834;4.280;2022-09-13T16:48:23;9.32;;;6.38;;
23288;SDS011;11813;50.834;4.280;2022-09-13T16:50:49;13.98;;;6.65;;
23288;SDS011;11813;50.834;4.280;2022-09-13T16:53:14;11.77;;;7.07;;
23288;SDS011;11813;50.834;4.280;2022-09-13T16:55:40;15.90;;;7.28;;
23288;SDS011;11813;50.834;4.280;2022-09-13T16:58:06;11.85;;;7.75;;
23288;SDS011;11813;50.834;4.280;2022-09-13T17:00:32;15.95;;;7.53;;
23288;SDS011;11813;50.834;4.280;2022-09-13T17:02:58;15.10;;;7.63;;
23288;SDS011;11813;50.834;4.280;2022-09-13T17:05:23;17.70;;;8.05;;
23288;SDS011;11813;50.834;4.280;2022-09-13T17:07:50;23.25;;;10.90;;
23288;SDS011;11813;50.834;4.280;2022-09-13T17:10:17;27.42;;;12.50;;
23288;SDS011;11813;50.834;4.280;2022-09-13T17:12:42;25.15;;;11.07;;
23288;SDS011;11813;50.834;4.280;2022-09-13T17:15:08;20.27;;;9.35;;
23288;SDS011;11813;50.834;4.280;2022-09-13T17:17:34;23.42;;;9.90;;
23288;SDS011;11813;50.834;4.280;2022-09-13T17:20:01;21.55;;;10.07;;
23288;SDS011;11813;50.834;4.280;2022-09-13T17:22:31;18.17;;;9.63;;
23288;SDS011;11813;50.834;4.280;2022-09-13T17:24:58;25.23;;;9.43;;
23288;SDS011;11813;50.834;4.280;2022-09-13T17:27:25;17.88;;;9.52;;
23288;SDS011;11813;50.834;4.280;2022-09-13T17:29:50;16.85;;;9.30;;
23288;SDS011;11813;50.834;4.280;2022-09-13T17:32:17;13.45;;;8.52;;
23288;SDS011;11813;50.834;4.280;2022-09-13T17:34:43;17.52;;;8.75;;
23288;SDS011;11813;50.834;4.280;2022-09-13T17:37:09;14.95;;;8.30;;
23288;SDS011;11813;50.834;4.280;2022-09-13T17:39:35;18.77;;;8.98;;
23288;SDS011;11813;50.834;4.280;2022-09-13T17:42:00;17.38;;;8.77;;
23288;SDS011;11813;50.834;4.280;2022-09-13T17:44:26;16.27;;;8.75;;
23288;SDS011;11813;50.834;4.280;2022-09-13T17:46:52;15.63;;;9.25;;
23288;SDS011;11813;50.834;4.280;2022-09-13T17:49:17;14.82;;;10.13;;
23288;SDS011;11813;50.834;4.280;2022-09-13T17:51:44;18.65;;;9.63;;
23288;SDS011;11813;50.834;4.280;2022-09-13T17:54:09;25.00;;;11.23;;
23288;SDS011;11813;50.834;4.280;2022-09-13T17:56:36;21.92;;;11.20;;
23288;SDS011;11813;50.834;4.280;2022-09-13T18:01:38;27.27;;;11.38;;
23288;SDS011;11813;50.834;4.280;2022-09-13T18:04:05;22.67;;;11.50;;
23288;SDS011;11813;50.834;4.280;2022-09-13T18:06:32;26.38;;;13.02;;
23288;SDS011;11813;50.834;4.280;2022-09-13T18:08:58;20.02;;;11.93;;
23288;SDS011;11813;50.834;4.280;2022-09-13T18:11:24;20.98;;;12.65;;
23288;SDS011;11813;50.834;4.280;2022-09-13T18:13:49;26.10;;;12.95;;
23288;SDS011;11813;50.834;4.280;2022-09-13T18:16:19;24.77;;;12.38;;
23288;SDS011;11813;50.834;4.280;2022-09-13T18:18:47;15.85;;;11.13;;
23288;SDS011;11813;50.834;4.280;2022-09-13T18:21:14;21.42;;;12.60;;
23288;SDS011;11813;50.834;4.280;2022-09-13T18:23:43;20.80;;;11.95;;
23288;SDS011;11813;50.834;4.280;2022-09-13T18:26:10;21.85;;;11.95;;
23288;SDS011;11813;50.834;4.280;2022-09-13T18:28:37;19.65;;;12.52;;
23288;SDS011;11813;50.834;4.280;2022-09-13T18:31:04;15.93;;;12.40;;
23288;SDS011;11813;50.834;4.280;2022-09-13T18:33:31;18.42;;;11.48;;